Time;durP1;ratioP1;P1;durP2;ratioP2;P2;SDS_P1;SDS_P2;PMS_P1;PMS_P2;Temp;Humidity;BMP_temperature;BMP_pressure;BME280_temperature;BME280_humidity;BME280_pressure;Samples;Min_cycle;Max_cycle;Signal;HPM_P1;HPM_P2
2023/03/25 00:01:31;;;;;;;3.50;1.10;;;10.10;99.90;;;;;;5005174;28;20535;-77
2023/03/25 00:03:59;;;;;;;3.00;1.00;;;10.20;99.90;;;;;;4995817;28;20536;-79
2023/03/25 00:06:27;;;;;;;6.23;1.47;;;10.10;99.90;;;;;;5013852;28;20483;-79
2023/03/25 00:08:54;;;;;;;9.47;1.20;;;10.10;99.90;;;;;;5031095;23;20519;-82
2023/03/25 00:11:21;;;;;;;2.63;1.00;;;10.00;99.90;;;;;;5014061;28;20524;-82
2023/03/25 00:13:48;;;;;;;3.20;1.23;;;9.90;99.90;;;;;;5009756;28;20815;-82
2023/03/25 00:16:17;;;;;;;3.17;0.90;;;9.80;99.90;;;;;;5020053;28;20538;-82
2023/03/25 00:18:46;;;;;;;1.50;0.80;;;9.70;99.90;;;;;;5015076;28;20531;-82
2023/03/25 00:21:13;;;;;;;3.53;1.10;;;9.60;99.90;;;;;;5020172;28;20575;-82
2023/03/25 00:23:41;;;;;;;4.40;1.03;;;9.60;99.90;;;;;;5020345;28;20460;-82
2023/03/25 00:26:08;;;;;;;2.07;0.87;;;9.50;99.90;;;;;;4998635;28;20464;-83
2023/03/25 00:28:37;;;;;;;3.67;1.40;;;9.50;99.90;;;;;;5003704;28;20474;-82
2023/03/25 00:31:07;;;;;;;3.20;1.27;;;9.50;99.90;;;;;;5012013;28;20479;-83
2023/03/25 00:33:35;;;;;;;2.53;0.83;;;9.50;99.90;;;;;;4997856;28;20477;-82
2023/03/25 00:36:04;;;;;;;4.97;0.93;;;9.60;99.90;;;;;;4984243;28;20657;-80
2023/03/25 00:38:34;;;;;;;6.13;1.30;;;9.60;99.90;;;;;;5003110;28;20491;-80
2023/03/25 00:41:09;;;;;;;2.97;1.33;;;9.70;99.90;;;;;;5004023;28;20528;-79
2023/03/25 00:43:36;;;;;;;2.80;0.90;;;9.70;99.90;;;;;;4990735;28;20537;-79
2023/03/25 00:46:03;;;;;;;3.07;1.30;;;9.80;99.90;;;;;;5002698;28;20536;-80
2023/03/25 00:48:31;;;;;;;1.60;1.10;;;9.80;99.90;;;;;;5002840;28;20472;-80
2023/03/25 00:50:57;;;;;;;4.43;1.23;;;9.90;99.90;;;;;;4999972;28;20454;-80
2023/03/25 00:53:26;;;;;;;3.40;1.30;;;9.90;99.90;;;;;;5001592;28;20461;-80
2023/03/25 00:55:57;;;;;;;6.30;1.40;;;10.00;99.90;;;;;;5002012;28;20460;-80
2023/03/25 00:58:24;;;;;;;5.77;1.40;;;10.00;99.90;;;;;;5013795;28;20472;-80
2023/03/25 01:00:51;;;;;;;2.47;0.80;;;10.00;99.90;;;;;;5008740;28;20531;-80
2023/03/25 01:03:17;;;;;;;4.43;1.43;;;10.00;99.90;;;;;;5002947;28;20519;-80
2023/03/25 01:05:44;;;;;;;1.80;1.10;;;10.00;99.90;;;;;;5003280;28;20840;-80
2023/03/25 01:08:13;;;;;;;1.60;0.70;;;9.90;99.90;;;;;;5003088;28;20480;-79
2023/03/25 01:10:41;;;;;;;5.23;1.30;;;9.90;99.90;;;;;;5002059;28;20430;-80
2023/03/25 01:13:08;;;;;;;5.43;1.27;;;9.90;99.90;;;;;;5002188;28;20460;-80
2023/03/25 01:15:35;;;;;;;3.17;0.93;;;9.90;99.90;;;;;;5002512;28;20516;-80
2023/03/25 01:18:02;;;;;;;4.53;1.03;;;9.80;99.90;;;;;;5002755;28;20456;-80
2023/03/25 01:20:29;;;;;;;2.73;1.20;;;9.90;99.90;;;;;;5002415;28;20488;-78
2023/03/25 01:22:56;;;;;;;1.90;0.90;;;9.90;99.90;;;;;;5005474;28;20924;-80
2023/03/25 01:25:22;;;;;;;4.23;1.50;;;9.80;99.90;;;;;;5007546;28;20547;-79
2023/03/25 01:27:51;;;;;;;1.73;0.83;;;9.80;99.90;;;;;;5008374;28;20483;-81
2023/03/25 01:30:18;;;;;;;4.77;1.17;;;9.70;99.90;;;;;;5008083;28;20472;-81
2023/03/25 01:32:45;;;;;;;6.10;1.70;;;9.60;99.90;;;;;;5004934;28;20457;-81
2023/03/25 01:35:12;;;;;;;4.47;1.03;;;9.60;99.90;;;;;;5004798;28;20453;-81
2023/03/25 01:37:38;;;;;;;2.90;1.10;;;9.60;99.90;;;;;;5005063;28;20468;-81
2023/03/25 01:40:07;;;;;;;4.03;1.07;;;9.60;99.90;;;;;;5003828;28;21053;-81
2023/03/25 01:42:34;;;;;;;5.87;1.60;;;9.60;99.90;;;;;;5002813;28;20527;-80
2023/03/25 01:45:20;;;;;;;3.17;1.20;;;9.60;99.90;;;;;;5004741;28;20486;-81
2023/03/25 01:47:49;;;;;;;3.80;1.30;;;9.60;99.90;;;;;;5010416;28;20456;-81
2023/03/25 01:50:17;;;;;;;2.37;1.23;;;9.70;99.90;;;;;;5025099;28;20465;-81
2023/03/25 01:52:47;;;;;;;3.20;1.10;;;9.70;99.90;;;;;;5014638;28;20457;-81
2023/03/25 01:55:16;;;;;;;5.40;1.47;;;9.80;99.90;;;;;;5003653;28;20446;-81
2023/03/25 01:57:45;;;;;;;2.93;1.20;;;9.80;99.90;;;;;;5003989;28;20454;-82
2023/03/25 02:00:15;;;;;;;7.13;1.60;;;9.70;99.90;;;;;;5004079;28;20477;-80
2023/03/25 02:02:44;;;;;;;3.10;1.37;;;9.80;99.90;;;;;;5002959;28;20484;-82
2023/03/25 02:05:18;;;;;;;2.63;1.00;;;9.80;99.90;;;;;;5003485;28;20468;-81
2023/03/25 02:07:46;;;;;;;6.13;1.50;;;9.80;99.90;;;;;;5003275;28;20489;-81
2023/03/25 02:10:15;;;;;;;3.90;1.37;;;9.80;99.90;;;;;;5003079;28;20489;-81
2023/03/25 02:12:44;;;;;;;3.43;1.40;;;9.80;99.90;;;;;;5002764;28;20854;-81
2023/03/25 02:15:14;;;;;;;2.80;1.00;;;9.80;99.90;;;;;;5000864;28;20550;-81
2023/03/25 02:17:59;;;;;;;2.23;1.00;;;9.80;99.90;;;;;;4998431;28;20437;-81
2023/03/25 02:21:07;;;;;;;2.57;0.97;;;9.80;99.90;;;;;;4998239;28;20481;-80
2023/03/25 02:24:01;;;;;;;4.57;2.27;;;9.70;99.90;;;;;;4999671;28;20462;-81
2023/03/25 02:27:13;;;;;;;4.23;1.20;;;9.80;99.90;;;;;;4998027;28;20569;-80
2023/03/25 02:29:57;;;;;;;4.90;1.23;;;9.80;99.90;;;;;;4980572;28;20509;-80
2023/03/25 02:32:52;;;;;;;5.13;1.03;;;9.80;99.90;;;;;;4978764;28;20466;-81
2023/03/25 02:35:36;;;;;;;4.27;1.10;;;9.80;99.90;;;;;;4987349;28;20824;-81
2023/03/25 02:38:17;;;;;;;3.30;1.33;;;9.80;99.90;;;;;;5000547;28;20460;-81
2023/03/25 02:40:50;;;;;;;2.67;1.07;;;9.90;99.90;;;;;;4998292;28;20461;-81
2023/03/25 02:43:24;;;;;;;7.17;1.60;;;9.90;99.90;;;;;;4999596;28;20461;-80
2023/03/25 02:45:54;;;;;;;5.27;1.20;;;9.90;99.90;;;;;;5006149;28;20505;-81
2023/03/25 02:48:30;;;;;;;5.07;1.10;;;9.90;99.90;;;;;;5005006;28;20476;-80
2023/03/25 02:50:59;;;;;;;1.80;0.90;;;9.90;99.90;;;;;;5004086;28;20434;-81
2023/03/25 02:53:32;;;;;;;5.83;1.30;;;9.90;99.90;;;;;;5007847;28;20480;-81
2023/03/25 02:56:02;;;;;;;3.00;1.07;;;9.80;99.90;;;;;;5008263;28;20525;-81
2023/03/25 02:58:30;;;;;;;3.50;1.10;;;9.80;99.90;;;;;;5006392;28;20563;-81
2023/03/25 03:00:58;;;;;;;2.20;1.20;;;9.80;99.90;;;;;;5005141;28;20491;-82
2023/03/25 03:03:26;;;;;;;1.50;0.80;;;9.80;99.90;;;;;;5006634;28;20456;-81
2023/03/25 03:05:56;;;;;;;3.43;0.80;;;9.90;99.90;;;;;;5008212;28;20457;-81
2023/03/25 03:08:36;;;;;;;4.40;1.83;;;9.80;99.90;;;;;;5004812;28;20848;-80
2023/03/25 03:11:12;;;;;;;2.53;1.53;;;9.90;99.90;;;;;;5003136;28;20456;-81
2023/03/25 03:13:53;;;;;;;6.40;1.83;;;9.80;99.90;;;;;;5003588;28;20484;-80
2023/03/25 03:16:31;;;;;;;1.93;0.90;;;9.80;99.90;;;;;;5005382;28;20524;-82
2023/03/25 03:19:07;;;;;;;6.03;1.10;;;9.80;99.90;;;;;;5003247;28;20475;-80
2023/03/25 03:21:39;;;;;;;2.70;0.90;;;9.80;99.90;;;;;;5004488;28;20496;-81
2023/03/25 03:24:15;;;;;;;2.10;1.10;;;9.70;99.90;;;;;;5005251;28;20452;-81
2023/03/25 03:26:48;;;;;;;2.47;1.00;;;9.70;99.90;;;;;;5005525;28;20438;-81
2023/03/25 03:29:17;;;;;;;4.00;1.20;;;9.70;99.90;;;;;;5005021;28;20483;-81
2023/03/25 03:31:50;;;;;;;9.33;1.97;;;9.70;99.90;;;;;;5003768;28;20452;-81
2023/03/25 03:34:26;;;;;;;4.43;1.33;;;9.70;99.90;;;;;;5003066;28;20451;-80
2023/03/25 03:36:57;;;;;;;3.67;1.23;;;9.60;99.90;;;;;;5002707;28;20456;-81
2023/03/25 03:39:28;;;;;;;4.70;1.73;;;9.60;99.90;;;;;;5001542;28;21021;-81
2023/03/25 03:41:59;;;;;;;3.93;1.60;;;9.60;99.90;;;;;;5001443;28;20545;-81
2023/03/25 03:44:31;;;;;;;4.50;1.23;;;9.60;99.90;;;;;;5001957;28;20463;-81
2023/03/25 03:47:02;;;;;;;9.07;1.20;;;9.60;99.90;;;;;;5001748;28;20456;-80
2023/03/25 03:49:34;;;;;;;7.77;1.10;;;9.60;99.90;;;;;;4997329;28;21007;-81
2023/03/25 03:52:08;;;;;;;2.30;1.13;;;9.50;99.90;;;;;;4995973;28;20447;-80
2023/03/25 03:54:42;;;;;;;1.93;1.20;;;9.40;99.90;;;;;;4998563;28;20880;-81
2023/03/25 03:57:14;;;;;;;3.10;1.20;;;9.40;99.90;;;;;;4998396;28;20972;-80
2023/03/25 03:59:46;;;;;;;1.80;0.90;;;9.40;99.90;;;;;;4999349;28;20480;-81
2023/03/25 04:02:22;;;;;;;2.53;1.20;;;9.40;99.90;;;;;;4999501;28;20480;-80
2023/03/25 04:04:53;;;;;;;3.30;1.23;;;9.30;99.90;;;;;;5001025;28;20522;-81
2023/03/25 04:07:27;;;;;;;3.30;1.67;;;9.40;99.90;;;;;;4998860;28;20460;-81
2023/03/25 04:10:03;;;;;;;6.40;1.13;;;9.50;99.90;;;;;;5000882;28;20485;-81
2023/03/25 04:12:32;;;;;;;2.70;1.17;;;9.50;99.90;;;;;;4999736;28;21060;-81
2023/03/25 04:15:01;;;;;;;6.10;2.13;;;9.50;99.90;;;;;;5000547;28;20579;-80
2023/03/25 04:17:31;;;;;;;3.37;1.00;;;9.50;99.90;;;;;;4998659;28;20469;-81
2023/03/25 04:19:58;;;;;;;2.93;0.93;;;9.50;99.90;;;;;;5000236;28;20540;-79
2023/03/25 04:22:25;;;;;;;2.33;1.17;;;9.40;99.90;;;;;;4999682;28;20484;-80
2023/03/25 04:24:53;;;;;;;5.00;1.40;;;9.40;99.90;;;;;;4999843;28;20517;-80
2023/03/25 04:27:22;;;;;;;3.50;1.17;;;9.30;99.90;;;;;;5000992;28;20832;-80
2023/03/25 04:29:51;;;;;;;8.40;2.20;;;9.20;99.90;;;;;;5000157;28;20546;-81
2023/03/25 04:32:18;;;;;;;2.93;1.27;;;9.20;99.90;;;;;;5006195;28;20454;-81
2023/03/25 04:34:45;;;;;;;5.83;1.53;;;9.10;99.90;;;;;;5004883;28;20542;-81
2023/03/25 04:37:12;;;;;;;5.87;1.13;;;9.10;99.90;;;;;;5003937;28;21025;-81
2023/03/25 04:39:39;;;;;;;5.67;1.53;;;9.10;99.90;;;;;;5004369;28;20483;-81
2023/03/25 04:42:07;;;;;;;2.90;1.40;;;9.10;99.90;;;;;;5003046;28;20488;-81
2023/03/25 04:44:37;;;;;;;5.03;1.40;;;9.00;99.90;;;;;;5003917;28;20459;-81
2023/03/25 04:47:07;;;;;;;5.27;1.23;;;8.90;99.90;;;;;;5002401;28;20467;-82
2023/03/25 04:49:33;;;;;;;9.77;1.63;;;8.90;99.90;;;;;;5000984;28;21019;-81
2023/03/25 04:52:03;;;;;;;3.53;1.40;;;8.80;99.90;;;;;;4999234;28;20552;-81
2023/03/25 04:54:30;;;;;;;4.30;1.40;;;8.80;99.90;;;;;;5002266;28;20451;-81
2023/03/25 04:56:57;;;;;;;5.00;2.10;;;8.80;99.90;;;;;;5001911;28;20456;-81
2023/03/25 04:59:25;;;;;;;11.53;2.13;;;8.80;99.90;;;;;;4999789;28;20538;-80
2023/03/25 05:01:54;;;;;;;5.03;1.50;;;8.90;99.90;;;;;;4999823;28;20920;-81
2023/03/25 05:04:23;;;;;;;7.00;1.57;;;8.80;99.90;;;;;;4999080;28;20467;-81
2023/03/25 05:06:50;;;;;;;3.30;1.20;;;8.70;99.90;;;;;;4994282;28;20564;-80
2023/03/25 05:09:20;;;;;;;8.33;1.80;;;8.70;99.90;;;;;;4989514;28;20487;-81
2023/03/25 05:11:48;;;;;;;5.90;1.10;;;8.70;99.90;;;;;;4999266;28;20457;-80
2023/03/25 05:14:17;;;;;;;4.40;1.63;;;8.70;99.90;;;;;;4999290;28;20452;-80
2023/03/25 05:16:45;;;;;;;4.97;1.37;;;8.80;99.90;;;;;;4999031;28;20530;-80
2023/03/25 05:19:14;;;;;;;5.40;1.60;;;8.70;99.90;;;;;;5000836;28;20482;-80
2023/03/25 05:21:41;;;;;;;5.10;1.00;;;8.70;99.90;;;;;;4998182;28;20492;-79
2023/03/25 05:24:10;;;;;;;4.87;1.50;;;8.70;99.90;;;;;;4998979;28;20550;-81
2023/03/25 05:26:38;;;;;;;5.97;1.60;;;8.60;99.90;;;;;;5001658;28;20541;-80
2023/03/25 05:29:07;;;;;;;2.93;1.53;;;8.70;99.90;;;;;;4998323;28;20506;-81
2023/03/25 05:31:34;;;;;;;3.40;0.90;;;8.70;99.90;;;;;;4997490;28;20456;-80
2023/03/25 05:34:05;;;;;;;4.80;1.27;;;8.70;99.90;;;;;;4998035;28;20556;-80
2023/03/25 05:36:33;;;;;;;4.23;1.37;;;8.70;99.90;;;;;;4999203;28;20539;-80
2023/03/25 05:39:00;;;;;;;4.70;1.03;;;8.70;99.90;;;;;;4999457;28;20479;-80
2023/03/25 05:41:31;;;;;;;5.83;1.30;;;8.70;99.90;;;;;;4999706;28;20510;-80
2023/03/25 05:43:59;;;;;;;4.33;1.10;;;8.80;99.90;;;;;;5000447;28;20495;-80
2023/03/25 05:46:28;;;;;;;7.37;1.40;;;8.80;99.90;;;;;;5000727;28;20510;-80
2023/03/25 05:48:56;;;;;;;4.20;1.57;;;8.80;99.90;;;;;;5001571;28;20486;-79
2023/03/25 05:51:24;;;;;;;5.77;1.43;;;8.90;99.90;;;;;;5002969;28;20479;-80
2023/03/25 05:53:53;;;;;;;7.40;2.03;;;9.00;99.90;;;;;;5003732;28;20456;-80
2023/03/25 05:56:23;;;;;;;6.97;1.27;;;9.00;99.90;;;;;;5002819;28;20460;-80
2023/03/25 05:58:51;;;;;;;2.80;1.20;;;9.10;99.90;;;;;;5001800;28;20475;-80
2023/03/25 06:01:20;;;;;;;4.90;1.20;;;9.20;99.90;;;;;;5000524;28;20460;-80
2023/03/25 06:03:48;;;;;;;7.83;1.57;;;9.20;99.90;;;;;;5001641;28;20492;-82
2023/03/25 06:06:17;;;;;;;7.20;2.67;;;9.20;99.90;;;;;;4997051;28;20799;-81
2023/03/25 06:08:44;;;;;;;7.13;2.77;;;9.20;99.90;;;;;;5016640;23;20618;-81
2023/03/25 06:11:13;;;;;;;4.77;1.40;;;9.10;99.90;;;;;;4993163;28;20461;-77
2023/03/25 06:13:40;;;;;;;4.23;1.30;;;9.00;99.90;;;;;;4996356;28;20471;-78
2023/03/25 06:16:08;;;;;;;4.37;1.03;;;9.10;99.90;;;;;;4991800;28;20465;-76
2023/03/25 06:18:36;;;;;;;8.13;1.73;;;9.20;99.90;;;;;;5005146;28;20455;-78
2023/03/25 06:21:03;;;;;;;5.07;1.33;;;9.30;99.90;;;;;;5010294;28;20874;-77
2023/03/25 06:23:34;;;;;;;3.10;1.13;;;9.30;99.90;;;;;;4998767;28;20864;-80
2023/03/25 06:26:03;;;;;;;4.47;1.10;;;9.50;99.90;;;;;;4992441;28;20450;-77
2023/03/25 06:28:32;;;;;;;5.20;1.60;;;9.50;99.90;;;;;;5001307;28;20467;-79
2023/03/25 06:31:02;;;;;;;3.80;1.53;;;9.60;99.90;;;;;;4994635;28;20492;-78
2023/03/25 06:33:29;;;;;;;2.80;1.00;;;9.50;99.90;;;;;;4993347;28;21117;-78
2023/03/25 06:35:55;;;;;;;5.30;1.67;;;9.60;99.90;;;;;;4995697;28;20456;-79
2023/03/25 06:38:23;;;;;;;8.30;2.10;;;9.50;99.90;;;;;;4996037;28;20458;-77
2023/03/25 06:40:50;;;;;;;5.93;1.37;;;9.40;99.90;;;;;;4994261;28;21366;-78
2023/03/25 06:43:17;;;;;;;4.53;1.23;;;9.40;99.90;;;;;;4995808;28;21168;-77
2023/03/25 06:45:45;;;;;;;9.00;1.40;;;9.50;99.90;;;;;;4995509;28;20459;-79
2023/03/25 06:48:12;;;;;;;5.67;2.40;;;9.50;99.90;;;;;;4995752;28;20469;-78
2023/03/25 06:50:39;;;;;;;2.40;1.13;;;9.50;99.90;;;;;;4996533;28;20863;-79
2023/03/25 06:53:06;;;;;;;3.20;1.00;;;9.50;99.90;;;;;;5000139;28;20458;-81
2023/03/25 06:55:32;;;;;;;3.77;1.23;;;9.60;99.90;;;;;;4998606;28;20537;-80
2023/03/25 06:57:59;;;;;;;5.53;1.30;;;9.70;99.90;;;;;;5011225;28;20915;-80
2023/03/25 07:00:27;;;;;;;4.10;1.27;;;9.70;99.90;;;;;;5018374;28;21062;-79
2023/03/25 07:02:55;;;;;;;4.00;1.13;;;9.60;99.90;;;;;;5005898;28;20885;-80
2023/03/25 07:05:22;;;;;;;8.73;1.60;;;9.60;99.90;;;;;;4999158;28;20457;-79
2023/03/25 07:07:49;;;;;;;7.30;2.00;;;9.70;99.90;;;;;;5011330;28;20550;-79
2023/03/25 07:10:15;;;;;;;4.77;1.50;;;9.70;99.90;;;;;;5021787;28;20481;-79
2023/03/25 07:12:42;;;;;;;4.00;0.87;;;9.90;99.90;;;;;;5013256;28;20457;-79
2023/03/25 07:15:10;;;;;;;3.20;1.23;;;10.00;99.90;;;;;;5003592;28;20608;-79
2023/03/25 07:17:36;;;;;;;7.27;1.20;;;10.20;99.90;;;;;;5008422;28;20523;-79
2023/03/25 07:20:06;;;;;;;2.33;1.27;;;10.30;99.90;;;;;;5015508;28;20496;-79
2023/03/25 07:22:33;;;;;;;4.93;1.40;;;10.30;99.90;;;;;;4997771;28;20508;-79
2023/03/25 07:25:00;;;;;;;2.63;1.33;;;10.20;99.90;;;;;;4998532;28;20477;-80
2023/03/25 07:27:26;;;;;;;8.47;1.70;;;10.40;99.90;;;;;;4999303;28;20470;-79
2023/03/25 07:29:54;;;;;;;5.40;1.80;;;10.40;99.90;;;;;;4999359;28;21018;-80
2023/03/25 07:32:21;;;;;;;6.17;1.57;;;10.40;99.90;;;;;;5005839;28;20541;-80
2023/03/25 07:34:48;;;;;;;5.87;1.23;;;10.30;99.90;;;;;;5001373;28;20836;-80
2023/03/25 07:37:16;;;;;;;4.33;1.50;;;10.30;99.90;;;;;;4996781;28;20456;-80
2023/03/25 07:39:42;;;;;;;6.13;1.97;;;10.40;99.90;;;;;;4997366;28;20560;-80
2023/03/25 07:42:09;;;;;;;5.07;2.10;;;10.50;99.90;;;;;;4978429;28;20462;-81
2023/03/25 07:44:36;;;;;;;6.77;1.40;;;10.60;99.90;;;;;;4979251;28;20461;-81
2023/03/25 07:47:03;;;;;;;7.20;1.60;;;10.60;99.90;;;;;;4979845;28;20455;-82
2023/03/25 07:49:30;;;;;;;3.57;1.43;;;10.70;99.90;;;;;;5001321;28;20490;-80
2023/03/25 07:51:56;;;;;;;5.03;1.43;;;10.60;99.90;;;;;;4997210;28;20461;-81
2023/03/25 07:54:25;;;;;;;4.27;1.47;;;10.60;99.90;;;;;;5014938;28;20484;-80
2023/03/25 07:56:53;;;;;;;5.00;1.90;;;10.60;99.90;;;;;;5018009;28;20463;-80
2023/03/25 07:59:20;;;;;;;6.13;1.33;;;10.30;99.90;;;;;;5017496;28;20532;-81
2023/03/25 08:01:47;;;;;;;3.80;1.30;;;10.30;99.90;;;;;;5017496;28;20454;-81
2023/03/25 08:04:13;;;;;;;6.67;2.47;;;10.20;99.90;;;;;;5003095;28;20488;-81
2023/03/25 08:06:41;;;;;;;5.83;1.70;;;10.20;99.90;;;;;;4997402;28;20464;-81
2023/03/25 08:09:07;;;;;;;5.60;1.40;;;10.20;99.90;;;;;;5000058;28;20493;-81
2023/03/25 08:11:36;;;;;;;3.33;0.93;;;10.20;99.90;;;;;;4997573;28;20489;-80
2023/03/25 08:14:02;;;;;;;4.87;1.10;;;10.30;99.90;;;;;;5012164;28;20523;-79
2023/03/25 08:16:29;;;;;;;5.30;1.53;;;10.10;99.90;;;;;;5017253;28;20552;-82
2023/03/25 08:18:56;;;;;;;7.03;1.67;;;10.10;99.90;;;;;;5017341;28;21016;-82
2023/03/25 08:21:26;;;;;;;6.87;1.90;;;10.10;99.90;;;;;;5010007;28;20495;-79
2023/03/25 08:23:57;;;;;;;7.37;2.10;;;9.90;99.90;;;;;;4997439;28;21029;-80
2023/03/25 08:26:24;;;;;;;6.77;1.60;;;10.00;99.90;;;;;;5004204;28;20457;-80
2023/03/25 08:28:53;;;;;;;4.97;1.50;;;10.20;99.90;;;;;;5018690;28;20518;-79
2023/03/25 08:31:20;;;;;;;3.83;1.33;;;10.30;99.90;;;;;;5010795;28;20521;-81
2023/03/25 08:33:47;;;;;;;7.70;2.33;;;10.70;99.90;;;;;;4998145;28;20456;-81
2023/03/25 08:36:18;;;;;;;7.37;1.40;;;10.80;99.90;;;;;;5000524;28;20836;-81
2023/03/25 08:38:45;;;;;;;15.23;6.83;;;10.90;99.90;;;;;;5016602;28;20481;-80
2023/03/25 08:41:13;;;;;;;35.93;18.03;;;11.00;99.90;;;;;;5013531;28;20449;-81
2023/03/25 08:43:39;;;;;;;2.97;1.60;;;11.30;99.90;;;;;;4997604;28;20538;-80
2023/03/25 08:46:08;;;;;;;4.77;1.60;;;11.50;99.90;;;;;;4978041;28;20516;-81
2023/03/25 08:48:34;;;;;;;8.10;2.00;;;11.50;99.90;;;;;;4993284;28;20551;-80
2023/03/25 08:51:02;;;;;;;9.13;2.17;;;11.40;99.90;;;;;;4996833;28;20450;-79
2023/03/25 08:53:29;;;;;;;11.57;2.20;;;11.40;99.90;;;;;;4997696;28;20467;-80
2023/03/25 08:55:58;;;;;;;5.73;2.57;;;11.50;99.90;;;;;;4998480;28;20491;-81
2023/03/25 08:58:26;;;;;;;4.00;1.53;;;11.50;99.90;;;;;;4996798;28;20533;-81
2023/03/25 09:00:55;;;;;;;7.43;1.97;;;11.50;99.90;;;;;;4996539;28;20465;-83
2023/03/25 09:03:25;;;;;;;8.80;1.80;;;11.70;99.90;;;;;;5010334;28;20478;-80
2023/03/25 09:05:53;;;;;;;10.23;2.17;;;12.00;99.90;;;;;;5016698;28;20492;-81
2023/03/25 09:08:20;;;;;;;8.63;1.80;;;11.80;99.90;;;;;;5005470;28;20831;-80
2023/03/25 09:10:47;;;;;;;5.53;1.97;;;11.50;99.90;;;;;;5000570;28;20498;-81
2023/03/25 09:13:14;;;;;;;6.63;1.93;;;11.20;99.90;;;;;;5016478;28;20456;-83
2023/03/25 09:15:41;;;;;;;10.87;1.70;;;11.00;99.90;;;;;;5014706;28;20457;-82
2023/03/25 09:18:09;;;;;;;8.07;2.47;;;10.80;99.90;;;;;;5015938;28;20444;-81
2023/03/25 09:20:37;;;;;;;13.40;2.10;;;10.70;99.90;;;;;;5009149;28;20912;-80
2023/03/25 09:23:04;;;;;;;7.37;1.90;;;10.60;99.90;;;;;;4996787;28;20492;-80
2023/03/25 09:25:31;;;;;;;6.03;2.13;;;10.50;99.90;;;;;;5001519;28;20461;-81
2023/03/25 09:27:57;;;;;;;11.20;3.00;;;10.60;99.90;;;;;;5024656;28;20497;-80
2023/03/25 09:30:24;;;;;;;12.57;1.90;;;10.70;99.90;;;;;;5028767;28;20528;-79
2023/03/25 09:32:51;;;;;;;9.33;1.97;;;10.80;99.90;;;;;;5006007;28;20502;-81
2023/03/25 09:35:18;;;;;;;8.37;2.20;;;10.80;99.90;;;;;;5004268;28;20489;-82
2023/03/25 09:37:46;;;;;;;8.37;2.60;;;11.00;99.90;;;;;;4995678;28;20552;-82
2023/03/25 09:40:16;;;;;;;7.17;1.73;;;11.10;99.90;;;;;;4994636;28;20574;-80
2023/03/25 09:43:04;;;;;;;6.10;1.83;;;11.10;99.90;;;;;;5013146;28;20457;-82
2023/03/25 09:45:35;;;;;;;9.73;2.20;;;11.00;99.90;;;;;;5015380;28;20507;-82
2023/03/25 09:48:05;;;;;;;6.30;2.00;;;10.80;99.90;;;;;;4975933;28;20459;-81
2023/03/25 09:50:35;;;;;;;9.53;2.83;;;10.70;99.90;;;;;;4978070;28;20468;-81
2023/03/25 09:53:07;;;;;;;6.53;2.00;;;10.50;99.90;;;;;;5015671;28;20454;-82
2023/03/25 09:55:42;;;;;;;12.43;1.97;;;10.60;99.90;;;;;;5016091;28;20459;-80
2023/03/25 09:58:26;;;;;;;6.33;2.73;;;10.90;99.90;;;;;;4977476;28;20447;-81
2023/03/25 10:00:58;;;;;;;7.43;1.97;;;11.40;99.90;;;;;;4980780;28;20832;-82
2023/03/25 10:03:31;;;;;;;12.30;3.27;;;11.30;99.90;;;;;;5020422;28;20468;-80
2023/03/25 10:06:17;;;;;;;7.70;2.20;;;11.30;99.90;;;;;;5018042;28;20462;-80
2023/03/25 10:09:00;;;;;;;5.00;1.60;;;11.70;99.90;;;;;;5017926;28;20481;-82
2023/03/25 10:11:36;;;;;;;9.20;2.00;;;11.70;99.90;;;;;;4999976;28;20447;-81
2023/03/25 10:14:09;;;;;;;6.43;2.30;;;11.90;99.90;;;;;;5003651;28;20449;-82
2023/03/25 10:16:47;;;;;;;9.10;2.13;;;12.40;99.90;;;;;;5020738;28;20434;-82
2023/03/25 10:19:28;;;;;;;7.80;1.83;;;12.60;99.90;;;;;;5015792;28;20576;-81
2023/03/25 10:22:00;;;;;;;9.57;2.43;;;12.80;99.90;;;;;;4999513;28;20454;-82
2023/03/25 10:24:32;;;;;;;7.40;2.10;;;12.90;99.90;;;;;;4998770;28;20875;-83
2023/03/25 10:27:02;;;;;;;3.90;1.43;;;13.40;99.90;;;;;;4998625;28;20450;-79
2023/03/25 10:29:33;;;;;;;6.63;1.40;;;13.60;99.90;;;;;;5001185;28;20469;-81
2023/03/25 10:32:05;;;;;;;10.90;2.60;;;12.70;99.90;;;;;;4989349;28;20889;-81
2023/03/25 10:34:37;;;;;;;7.60;2.07;;;12.30;99.90;;;;;;5000853;28;20924;-82
2023/03/25 10:37:11;;;;;;;7.33;2.20;;;11.60;99.90;;;;;;5001072;28;20957;-83
2023/03/25 10:39:44;;;;;;;9.87;2.30;;;10.80;99.90;;;;;;4987976;28;20493;-82
2023/03/25 10:42:21;;;;;;;8.07;2.57;;;10.70;99.90;;;;;;4996242;28;20445;-81
2023/03/25 10:44:48;;;;;;;10.27;2.37;;;10.60;99.90;;;;;;4995878;28;20493;-83
2023/03/25 10:47:19;;;;;;;9.80;3.00;;;10.30;99.90;;;;;;4999858;28;20529;-81
2023/03/25 10:49:48;;;;;;;9.80;2.40;;;10.20;99.90;;;;;;5001712;28;20543;-81
2023/03/25 10:52:16;;;;;;;9.43;2.97;;;10.10;99.90;;;;;;5019363;28;20459;-83
2023/03/25 10:54:48;;;;;;;7.57;2.70;;;10.40;99.90;;;;;;5018561;28;21010;-82
2023/03/25 10:57:20;;;;;;;8.17;2.50;;;10.60;99.90;;;;;;5000472;28;20442;-83
2023/03/25 10:59:57;;;;;;;10.03;3.00;;;10.70;99.90;;;;;;5003530;28;20482;-83
2023/03/25 11:02:25;;;;;;;9.80;5.73;;;10.70;99.90;;;;;;5007808;28;20450;-82
2023/03/25 11:04:55;;;;;;;7.00;2.30;;;11.10;99.90;;;;;;5000812;28;20521;-82
2023/03/25 11:07:26;;;;;;;6.33;1.80;;;11.50;99.90;;;;;;4999866;28;20455;-83
2023/03/25 11:10:07;;;;;;;4.03;1.93;;;11.50;99.90;;;;;;4999511;28;20488;-80
2023/03/25 11:12:34;;;;;;;9.50;2.07;;;11.70;99.90;;;;;;4997517;28;20453;-80
2023/03/25 11:15:01;;;;;;;5.07;1.80;;;11.70;99.90;;;;;;4998185;28;20463;-83
2023/03/25 11:17:29;;;;;;;4.97;2.53;;;11.60;99.90;;;;;;5005554;28;21032;-83
2023/03/25 11:20:00;;;;;;;10.00;1.90;;;11.60;99.90;;;;;;5000388;28;20476;-82
2023/03/25 11:22:30;;;;;;;14.20;2.77;;;11.20;99.90;;;;;;4999439;28;20450;-83
2023/03/25 11:25:02;;;;;;;5.87;1.90;;;11.10;99.90;;;;;;4996557;28;20497;-82
2023/03/25 11:27:30;;;;;;;5.13;1.53;;;11.00;99.90;;;;;;4992640;28;20562;-81
2023/03/25 11:30:02;;;;;;;7.40;2.07;;;10.80;99.90;;;;;;4999274;28;20896;-82
2023/03/25 11:32:34;;;;;;;4.03;1.50;;;10.80;99.90;;;;;;4998817;28;20887;-80
2023/03/25 11:35:06;;;;;;;6.40;1.93;;;11.10;99.90;;;;;;4989387;28;20461;-81
2023/03/25 11:37:42;;;;;;;6.40;1.60;;;12.10;99.90;;;;;;4995500;28;20460;-82
2023/03/25 11:40:15;;;;;;;7.97;1.63;;;13.70;99.90;;;;;;4995736;28;20473;-80
2023/03/25 11:42:48;;;;;;;5.30;2.13;;;16.70;99.90;;;;;;4998627;28;20455;-82
2023/03/25 11:45:21;;;;;;;6.10;1.47;;;18.80;99.90;;;;;;4999250;28;20495;-83
2023/03/25 11:47:48;;;;;;;4.90;1.67;;;20.10;99.90;;;;;;4999895;28;20451;-82
2023/03/25 11:50:24;;;;;;;8.10;3.83;;;21.40;99.90;;;;;;4999406;28;20478;-80
2023/03/25 11:52:55;;;;;;;3.93;1.60;;;21.10;96.30;;;;;;4997915;28;20458;-82
2023/03/25 11:55:27;;;;;;;9.60;1.80;;;20.00;96.50;;;;;;4999774;28;20470;-80
2023/03/25 11:57:57;;;;;;;4.03;1.50;;;20.10;98.60;;;;;;5000063;28;20449;-83
2023/03/25 12:00:35;;;;;;;7.40;1.30;;;21.50;99.40;;;;;;5000910;28;20467;-82
2023/03/25 12:03:04;;;;;;;4.20;1.50;;;22.80;94.40;;;;;;4999438;28;20889;-82
2023/03/25 12:05:32;;;;;;;4.17;1.20;;;24.50;91.10;;;;;;5001675;28;20605;-84
2023/03/25 12:08:13;;;;;;;3.37;1.30;;;24.60;82.30;;;;;;5001006;28;20459;-82
2023/03/25 12:10:51;;;;;;;4.23;1.50;;;23.90;76.50;;;;;;5018091;23;21108;-81
2023/03/25 12:13:27;;;;;;;4.73;1.60;;;22.00;78.60;;;;;;4994789;28;20443;-82
2023/03/25 12:16:05;;;;;;;4.20;1.80;;;21.80;83.00;;;;;;4991641;28;20446;-79
2023/03/25 12:18:48;;;;;;;6.53;1.40;;;21.30;84.80;;;;;;4988171;28;20498;-79
2023/03/25 12:21:28;;;;;;;9.13;1.93;;;19.70;85.60;;;;;;4991866;28;20559;-81
2023/03/25 12:24:09;;;;;;;4.13;1.57;;;19.30;89.70;;;;;;4995725;28;21349;-81
2023/03/25 12:26:46;;;;;;;7.07;1.80;;;19.90;91.20;;;;;;5009314;28;20441;-83
2023/03/25 12:29:35;;;;;;;8.90;1.97;;;18.30;92.40;;;;;;4992075;28;20820;-79
2023/03/25 12:32:17;;;;;;;3.73;1.30;;;18.80;95.70;;;;;;4997209;28;20520;-81
2023/03/25 12:34:57;;;;;;;6.43;2.00;;;19.20;96.40;;;;;;4996661;28;20848;-82
2023/03/25 12:37:32;;;;;;;4.93;1.80;;;19.40;92.80;;;;;;4997729;28;20491;-80
2023/03/25 12:40:20;;;;;;;3.40;1.40;;;20.30;93.10;;;;;;4997805;28;20470;-81
2023/03/25 12:42:54;;;;;;;5.07;1.60;;;20.60;89.10;;;;;;4997802;28;20434;-82
2023/03/25 12:45:45;;;;;;;6.40;1.30;;;19.80;90.70;;;;;;4993728;28;20494;-82
2023/03/25 12:48:23;;;;;;;3.97;1.07;;;19.90;85.90;;;;;;5005836;28;20455;-81
2023/03/25 12:50:59;;;;;;;3.90;1.43;;;19.70;89.20;;;;;;4996738;28;20481;-81
2023/03/25 12:53:45;;;;;;;4.77;1.93;;;21.30;85.50;;;;;;4997065;28;20434;-82
2023/03/25 12:56:25;;;;;;;3.70;1.57;;;20.40;84.20;;;;;;4997190;28;20432;-80
2023/03/25 12:59:18;;;;;;;3.20;1.27;;;17.90;89.10;;;;;;4997452;28;20440;-80
2023/03/25 13:01:53;;;;;;;5.13;1.87;;;19.10;90.60;;;;;;4991281;28;20465;-80
2023/03/25 13:04:37;;;;;;;6.60;1.53;;;20.20;91.30;;;;;;4978673;28;20507;-81
2023/03/25 13:07:09;;;;;;;4.53;1.50;;;21.00;85.90;;;;;;4978028;28;20442;-83
2023/03/25 13:09:51;;;;;;;5.27;1.77;;;20.00;86.70;;;;;;4976753;28;20490;-82